PH-0085 weather

Alto Airfield
Tarlac City, Tarlac Province, Philippines

Public forecast

Using degrees Celsius for public forecast. Weather courtesy of forecast.io.

Closest aviation weather report (METAR) to Alto Airfield

Closest report is Diosdado Macapagal International Airport, 14.9 nm (27.6 km) SSW. Retrieved 2019/11/20 08:00 UTC (5 minutes ago):

RPLC 200800Z 14006KT 5000 SCT020 BKN100 28/26 Q1006 RERA RMK A2971

Closest aviation forecast (TAF) to Alto Airfield

Closest forecast is Diosdado Macapagal International Airport, 14.9 nm (27.6 km) SSW. Retrieved 2019/11/20 06:00 UTC (2 hours ago):

TAF RPLC 200500Z 2006/2112 34006KT 8000 FEW020 BKN300 TX33/2006Z TN25/2022Z TEMPO 2006/2012 14006KT 6000 -TSRA FEW015CB SCT020 BKN100